Terminal Aerodrome Forecast
Issued by NWS Greer, SC

Home | Current Version | Previous Version | Text Only | Print | Product List | Glossary On
Versions: 1 2 3 4 5 6 7 8 9 10 11 12 13 14 15 16 17
000
FTUS42 KGSP 252320
TAFAVL
TAF
KAVL 252320Z 2600/2624 VRB03KT P6SM FEW050
     FM260700 VRB02KT 3SM BR BKN008
      TEMPO 2608/2612 1/2SM FG OVC003
     FM261200 33004KT 5SM BR BKN022
     FM261500 35007KT P6SM SCT035
     FM261800 15008KT P6SM VCTS BKN035CB=

USA.gov is the U.S. government's official web portal to all federal, state and local government web resources and services.